createdAt,value
2018-05-01T00:00:38.027Z,91.67
2018-05-01T00:01:38.084Z,91.72
2018-05-01T00:02:38.310Z,92.54
2018-05-01T00:03:38.141Z,92.74
2018-05-01T00:04:38.289Z,92.21
2018-05-01T00:05:38.271Z,92.21
2018-05-01T00:06:38.492Z,91.82
2018-05-01T00:07:38.577Z,92.49
2018-05-01T00:08:38.415Z,92.98
2018-05-01T00:09:38.476Z,93.75
2018-05-01T00:10:38.632Z,93.75
2018-05-01T00:11:38.586Z,94.43
2018-05-01T00:12:38.629Z,93.66
2018-05-01T00:14:38.705Z,93.66
2018-05-01T00:15:38.754Z,93.66
2018-05-01T00:16:38.915Z,94.43
2018-05-01T00:17:38.850Z,94.72
2018-05-01T00:18:38.904Z,94.43
2018-05-01T00:19:38.961Z,93.85
2018-05-01T00:20:38.993Z,94.43
2018-05-01T00:21:39.056Z,94.62
2018-05-01T00:22:39.206Z,94.33
2018-05-01T00:23:39.140Z,94.24
2018-05-01T00:24:39.203Z,94.14
2018-05-01T00:25:39.453Z,94.09
2018-05-01T00:26:39.292Z,94.57
2018-05-01T00:27:39.558Z,94.38
2018-05-01T00:28:39.487Z,94.87
2018-05-01T00:29:39.443Z,95.54
2018-05-01T00:30:39.497Z,95.54
2018-05-01T00:31:39.526Z,95.54
2018-05-01T00:32:39.596Z,95.45
2018-05-01T00:33:40.834Z,95.64
2018-05-01T00:34:39.784Z,95.35
2018-05-01T00:35:39.732Z,96.31
2018-05-01T00:36:39.781Z,96.12
2018-05-01T00:37:39.841Z,95.93
2018-05-01T00:38:40.064Z,96.12
2018-05-01T00:39:39.935Z,96.41
2018-05-01T00:40:40.071Z,96.03
2018-05-01T00:41:40.009Z,96.12
2018-05-01T00:42:40.056Z,95.45
2018-05-01T00:43:40.117Z,94.96
2018-05-01T00:44:40.162Z,95.06
2018-05-01T00:45:40.199Z,94.38
2018-05-01T00:46:40.267Z,94.57
2018-05-01T00:47:40.401Z,94.96
2018-05-01T00:48:40.343Z,94.77
2018-05-01T00:49:40.403Z,94.38
2018-05-01T00:50:40.442Z,93.90
2018-05-01T00:51:40.506Z,93.99
2018-05-01T00:52:40.542Z,93.41
2018-05-01T00:53:40.683Z,94.29
2018-05-01T00:54:40.645Z,93.61
2018-05-01T00:55:40.694Z,93.80
2018-05-01T00:56:40.950Z,93.71
2018-05-01T00:57:40.787Z,94.38
2018-05-01T00:58:40.837Z,94.19
2018-05-01T00:59:41.142Z,94.09
2018-05-01T01:00:40.933Z,93.90
2018-05-01T01:01:40.979Z,94.38
2018-05-01T01:02:41.026Z,94.38
2018-05-01T01:03:41.163Z,94.29
2018-05-01T01:04:41.213Z,94.48
2018-05-01T01:06:41.206Z,94.29
2018-05-01T01:07:41.269Z,93.90
2018-05-01T01:08:41.311Z,94.19
2018-05-01T01:09:41.370Z,95.15
2018-05-01T01:10:41.397Z,94.77
2018-05-01T01:11:41.459Z,94.38
2018-05-01T01:12:41.527Z,94.38
2018-05-01T01:13:41.543Z,94.48
2018-05-01T01:14:41.692Z,94.38
2018-05-01T01:15:41.660Z,94.77
2018-05-01T01:16:41.690Z,93.90
2018-05-01T01:17:41.750Z,94.87
2018-05-01T01:18:42.016Z,94.87
2018-05-01T01:19:41.838Z,94.96
2018-05-01T01:20:41.973Z,94.96
2018-05-01T01:21:41.935Z,94.96
2018-05-01T01:22:41.982Z,94.87
2018-05-01T01:23:42.013Z,95.06
2018-05-01T01:24:42.271Z,94.96
2018-05-01T01:25:42.115Z,94.48
2018-05-01T01:26:42.257Z,94.87
2018-05-01T01:27:42.427Z,95.06
2018-05-01T01:28:42.271Z,95.15
2018-05-01T01:29:42.313Z,95.25
2018-05-01T01:30:42.358Z,95.64
2018-05-01T01:31:42.420Z,95.64
2018-05-01T01:32:42.560Z,95.25
2018-05-01T01:33:42.485Z,95.25
2018-05-01T01:34:42.553Z,96.31
2018-05-01T01:35:42.603Z,96.03
2018-05-01T01:36:42.641Z,96.41
2018-05-01T01:37:42.690Z,96.12
2018-05-01T01:38:42.722Z,96.31
2018-05-01T01:39:42.788Z,96.46
2018-05-01T01:40:43.032Z,96.46
2018-05-01T01:41:42.878Z,96.75
2018-05-01T01:42:43.012Z,96.75
2018-05-01T01:43:43.060Z,96.31
2018-05-01T01:44:43.019Z,96.17
2018-05-01T01:45:43.079Z,96.36
2018-05-01T01:46:43.101Z,96.70
2018-05-01T01:47:43.163Z,96.46
2018-05-01T01:48:43.209Z,96.51
2018-05-01T01:49:43.356Z,97.42
2018-05-01T01:51:43.351Z,97.33
2018-05-01T01:52:43.404Z,97.52
2018-05-01T01:53:43.458Z,97.09
2018-05-01T01:54:43.593Z,97.62
2018-05-01T01:55:43.539Z,97.91
2018-05-01T01:56:43.578Z,98.10
2018-05-01T01:57:43.632Z,97.81
2018-05-01T01:58:43.667Z,98.97
2018-05-01T01:59:43.723Z,99.16
2018-05-01T02:00:43.876Z,99.74
2018-05-01T02:01:43.923Z,99.99
2018-05-01T02:02:43.876Z,99.74
2018-05-01T02:03:43.967Z,99.74
2018-05-01T02:04:43.999Z,99.36
2018-05-01T02:05:44.069Z,99.74
2018-05-01T02:06:44.253Z,99.84
2018-05-01T02:07:45.308Z,99.84
2018-05-01T02:08:44.194Z,99.55
2018-05-01T02:10:44.248Z,99.84
2018-05-01T02:11:44.304Z,99.55
2018-05-01T02:12:44.477Z,99.84
2018-05-01T02:13:44.387Z,99.55
2018-05-01T02:14:44.431Z,99.84
2018-05-01T02:15:44.483Z,99.55
2018-05-01T02:16:44.513Z,99.65
2018-05-01T02:17:44.777Z,99.99
2018-05-01T02:18:44.660Z,99.94
2018-05-01T02:19:44.672Z,99.84
2018-05-01T02:20:44.702Z,99.99
2018-05-01T02:21:44.750Z,99.99
2018-05-01T02:22:44.804Z,99.99
2018-05-01T02:23:45.118Z,99.99
2018-05-01T02:26:45.000Z,99.94
2018-05-01T02:27:45.083Z,99.99
2018-05-01T02:28:45.100Z,99.99
2018-05-01T02:30:45.193Z,99.99
2018-05-01T02:31:45.229Z,99.99
2018-05-01T02:32:45.284Z,99.99
2018-05-01T02:33:45.435Z,99.99
2018-05-01T02:34:45.386Z,99.99
2018-05-01T02:35:45.430Z,99.99
2018-05-01T02:36:45.462Z,99.99
2018-05-01T02:38:45.663Z,99.99
2018-05-01T02:39:45.596Z,99.99
2018-05-01T02:40:45.661Z,99.99
2018-05-01T02:42:45.742Z,99.99
2018-05-01T02:43:45.796Z,99.99
2018-05-01T02:44:45.928Z,99.99
2018-05-01T02:45:45.874Z,99.99
2018-05-01T02:46:45.938Z,99.99
2018-05-01T02:47:45.982Z,99.99
2018-05-01T02:48:46.024Z,99.99
2018-05-01T02:49:46.084Z,99.99
2018-05-01T02:50:47.624Z,99.99
2018-05-01T02:51:46.156Z,99.99
2018-05-01T02:52:46.209Z,99.99
2018-05-01T02:53:46.263Z,99.99
2018-05-01T02:54:46.296Z,99.99
2018-05-01T02:55:46.345Z,99.99
2018-05-01T02:56:46.698Z,99.99
2018-05-01T02:57:46.455Z,99.99
2018-05-01T02:58:46.499Z,99.99
2018-05-01T02:59:46.557Z,99.99
2018-05-01T03:00:46.575Z,99.99
2018-05-01T03:02:46.668Z,99.99
2018-05-01T03:03:46.738Z,99.99
2018-05-01T03:04:46.762Z,99.99
2018-05-01T03:05:46.809Z,99.99
2018-05-01T03:06:48.529Z,99.99
2018-05-01T03:07:46.915Z,99.99
2018-05-01T03:08:46.974Z,99.99
2018-05-01T03:09:47.031Z,99.99
2018-05-01T03:10:47.054Z,99.99
2018-05-01T03:11:47.291Z,99.99
2018-05-01T03:12:47.136Z,99.99
2018-05-01T03:13:47.491Z,99.99
2018-05-01T03:14:47.228Z,99.99
2018-05-01T03:15:47.287Z,99.99
2018-05-01T03:16:47.338Z,99.99
2018-05-01T03:17:47.384Z,99.99
2018-05-01T03:18:47.430Z,99.99
2018-05-01T03:19:47.562Z,99.99
2018-05-01T03:20:47.507Z,99.99
2018-05-01T03:21:47.584Z,99.99
2018-05-01T03:22:47.605Z,99.99
2018-05-01T03:23:47.649Z,99.99
2018-05-01T03:24:47.705Z,99.99
2018-05-01T03:26:47.815Z,99.99
2018-05-01T03:27:47.832Z,99.99
2018-05-01T03:28:47.886Z,99.99
2018-05-01T03:30:48.074Z,99.99
2018-05-01T03:31:48.023Z,99.99
2018-05-01T03:32:48.094Z,99.99
2018-05-01T03:33:48.135Z,99.99
2018-05-01T03:34:48.184Z,99.99
2018-05-01T03:35:48.229Z,99.99
2018-05-01T03:36:48.267Z,99.99
2018-05-01T03:37:48.414Z,99.99
2018-05-01T03:38:48.360Z,99.99
2018-05-01T03:39:48.404Z,99.99
2018-05-01T03:40:48.441Z,99.99
2018-05-01T03:41:48.507Z,99.99
2018-05-01T03:42:48.683Z,99.99
2018-05-01T03:43:48.593Z,99.99
2018-05-01T03:44:48.624Z,99.99
2018-05-01T03:45:48.671Z,99.99
2018-05-01T03:46:48.718Z,99.99
2018-05-01T03:47:48.778Z,99.99
2018-05-01T03:48:48.970Z,99.99
2018-05-01T03:49:48.871Z,99.99
2018-05-01T03:50:48.930Z,99.99
2018-05-01T03:51:48.951Z,99.99
2018-05-01T03:52:48.999Z,99.99
2018-05-01T03:53:49.043Z,99.99
2018-05-01T03:54:49.088Z,99.99
2018-05-01T03:55:49.191Z,99.99
2018-05-01T03:57:49.238Z,99.99
2018-05-01T03:58:49.378Z,99.99
2018-05-01T03:59:49.429Z,99.99
2018-05-01T04:00:49.569Z,99.99
2018-05-01T04:01:49.429Z,99.99
2018-05-01T04:02:49.484Z,99.99
2018-05-01T04:03:49.529Z,99.99
2018-05-01T04:04:49.567Z,99.99
2018-05-01T04:06:49.668Z,99.99
2018-05-01T04:07:49.702Z,99.99
2018-05-01T04:08:49.747Z,99.99
2018-05-01T04:09:49.800Z,99.99
2018-05-01T04:10:49.938Z,99.99
2018-05-01T04:15:50.078Z,99.99
2018-05-01T04:16:50.427Z,99.99
2018-05-01T04:17:50.171Z,99.99
2018-05-01T04:18:50.205Z,99.99
2018-05-01T04:19:50.264Z,99.99
2018-05-01T04:20:50.297Z,99.99
2018-05-01T04:21:50.344Z,99.99
2018-05-01T04:22:50.506Z,99.99
2018-05-01T04:23:50.438Z,99.99
2018-05-01T04:24:50.504Z,99.99
2018-05-01T04:25:50.544Z,99.99
2018-05-01T04:26:50.592Z,99.99
2018-05-01T04:27:50.638Z,99.99
2018-05-01T04:28:50.786Z,99.99
2018-05-01T04:29:50.733Z,99.99
2018-05-01T04:30:50.780Z,99.99
2018-05-01T04:31:50.829Z,99.99
2018-05-01T04:32:50.861Z,99.99
2018-05-01T04:33:50.909Z,99.99
2018-05-01T04:34:51.067Z,99.99
2018-05-01T04:35:51.015Z,99.99
2018-05-01T04:36:51.055Z,99.99
2018-05-01T04:37:51.102Z,99.99
2018-05-01T04:38:51.157Z,99.99
2018-05-01T04:39:51.208Z,99.99
2018-05-01T04:40:51.336Z,99.99
2018-05-01T04:41:51.297Z,99.99
2018-05-01T04:42:51.348Z,99.99
2018-05-01T04:43:51.383Z,99.99
2018-05-01T04:44:51.436Z,99.99
2018-05-01T04:45:51.496Z,99.99
2018-05-01T04:46:51.618Z,99.99
2018-05-01T04:47:51.573Z,99.99
2018-05-01T04:48:51.623Z,99.99
2018-05-01T04:49:51.670Z,99.99
2018-05-01T04:50:51.724Z,99.99
2018-05-01T04:51:51.750Z,99.99
2018-05-01T04:52:51.896Z,99.99
2018-05-01T04:53:52.061Z,99.99
2018-05-01T04:54:51.906Z,99.99
2018-05-01T04:55:51.945Z,99.99
2018-05-01T04:56:52.200Z,99.99
2018-05-01T04:57:52.045Z,99.99
2018-05-01T04:58:52.091Z,99.99
2018-05-01T04:59:52.132Z,99.99
2018-05-01T05:00:52.193Z,99.99
2018-05-01T05:01:52.219Z,99.99
2018-05-01T05:02:52.385Z,99.99
2018-05-01T05:03:52.311Z,99.99
2018-05-01T05:04:52.357Z,99.99
2018-05-01T05:05:52.406Z,99.99
2018-05-01T05:06:52.473Z,99.99
2018-05-01T05:07:52.612Z,99.99
2018-05-01T05:08:52.558Z,99.99
2018-05-01T05:09:52.590Z,99.99
2018-05-01T05:10:52.638Z,99.99
2018-05-01T05:11:52.706Z,99.99
2018-05-01T05:12:52.751Z,99.99
2018-05-01T05:13:52.903Z,99.99
2018-05-01T05:15:52.872Z,99.99
2018-05-01T05:16:52.915Z,99.99
2018-05-01T05:17:53.167Z,99.99
2018-05-01T05:18:53.109Z,99.99
2018-05-01T05:19:53.074Z,99.99
2018-05-01T05:20:53.124Z,99.99
2018-05-01T05:21:53.149Z,99.99
2018-05-01T05:22:53.210Z,99.99
2018-05-01T05:25:53.342Z,99.99
2018-05-01T05:26:53.393Z,99.99
2018-05-01T05:28:53.775Z,99.99
2018-05-01T05:29:53.671Z,99.99
2018-05-01T05:30:53.581Z,99.99
2018-05-01T05:31:53.615Z,99.99
2018-05-01T05:32:53.673Z,99.99
2018-05-01T05:33:53.907Z,99.99
2018-05-01T05:34:53.766Z,99.99
2018-05-01T05:35:53.807Z,99.99
2018-05-01T05:36:53.845Z,99.99
2018-05-01T05:37:53.903Z,99.99
2018-05-01T05:38:53.951Z,99.99
2018-05-01T05:40:54.030Z,99.99
2018-05-01T05:41:54.103Z,99.99
2018-05-01T05:42:54.123Z,99.99
2018-05-01T05:43:54.182Z,99.99
2018-05-01T05:44:54.445Z,99.99
2018-05-01T05:45:54.262Z,99.99
2018-05-01T05:46:54.315Z,99.99
2018-05-01T05:47:54.374Z,99.99
2018-05-01T05:48:55.654Z,99.99
2018-05-01T05:49:54.446Z,99.99
2018-05-01T05:50:54.616Z,99.99
2018-05-01T05:51:54.539Z,99.99
2018-05-01T05:54:54.699Z,99.99
2018-05-01T05:55:54.732Z,99.99
2018-05-01T05:56:54.889Z,99.99
2018-05-01T05:57:54.825Z,99.99
2018-05-01T05:58:54.884Z,99.99
2018-05-01T05:59:54.923Z,99.99
2018-05-01T06:00:54.983Z,99.99
2018-05-01T06:01:55.016Z,99.99
2018-05-01T06:03:55.098Z,99.99
2018-05-01T06:04:55.156Z,99.99
2018-05-01T06:05:55.187Z,99.99
2018-05-01T06:06:55.246Z,99.99
2018-05-01T06:07:55.280Z,99.99
2018-05-01T06:08:55.339Z,99.99
2018-05-01T06:09:55.377Z,99.99
2018-05-01T06:10:55.438Z,99.99
2018-05-01T06:11:55.465Z,99.99
2018-05-01T06:12:55.614Z,99.99
2018-05-01T06:13:55.679Z,99.99
2018-05-01T06:14:55.631Z,99.99
2018-05-01T06:15:55.654Z,99.99
2018-05-01T06:16:55.704Z,99.99
2018-05-01T06:17:55.762Z,99.99
2018-05-01T06:18:55.800Z,99.99
2018-05-01T06:19:55.935Z,99.99
2018-05-01T06:20:55.894Z,99.99
2018-05-01T06:21:56.017Z,99.99
2018-05-01T06:22:55.994Z,99.99
2018-05-01T06:23:56.033Z,99.99
2018-05-01T06:24:56.175Z,99.99
2018-05-01T06:25:56.111Z,99.99
2018-05-01T06:26:56.165Z,99.99
2018-05-01T06:27:56.210Z,99.99
2018-05-01T06:28:56.262Z,99.99
2018-05-01T06:29:56.303Z,99.99
2018-05-01T06:30:56.467Z,99.99
2018-05-01T06:31:56.387Z,99.99
2018-05-01T06:32:56.433Z,99.99
2018-05-01T06:33:56.486Z,99.99
2018-05-01T06:34:56.527Z,99.99
2018-05-01T06:35:56.589Z,99.99
2018-05-01T06:36:56.756Z,99.99
2018-05-01T06:37:56.696Z,99.99
2018-05-01T06:38:56.737Z,99.99
2018-05-01T06:39:56.757Z,99.99
2018-05-01T06:40:56.800Z,99.99
2018-05-01T06:41:56.846Z,99.99
2018-05-01T06:42:56.995Z,99.99
2018-05-01T06:43:56.954Z,99.99
2018-05-01T06:44:56.997Z,99.99
2018-05-01T06:45:57.032Z,99.99
2018-05-01T06:46:57.090Z,99.99
2018-05-01T06:47:57.224Z,99.99
2018-05-01T06:48:57.385Z,99.99
2018-05-01T06:49:57.235Z,99.99
2018-05-01T06:50:57.282Z,99.99
2018-05-01T06:51:57.306Z,99.99
2018-05-01T06:52:57.372Z,99.99
2018-05-01T06:53:57.409Z,99.99
2018-05-01T06:54:57.443Z,99.99
2018-05-01T06:55:57.511Z,99.99
2018-05-01T06:56:57.541Z,99.99
2018-05-01T06:57:57.794Z,99.99
2018-05-01T06:58:57.648Z,99.99
2018-05-01T06:59:57.692Z,99.99
2018-05-01T07:00:57.780Z,99.99
2018-05-01T07:01:57.817Z,99.99
2018-05-01T07:02:58.148Z,99.99
2018-05-01T07:03:57.855Z,99.99
2018-05-01T07:04:57.900Z,99.99
2018-05-01T07:05:58.002Z,99.99
2018-05-01T07:06:58.007Z,99.99
2018-05-01T07:07:58.039Z,99.99
2018-05-01T07:08:58.184Z,99.99
2018-05-01T07:09:58.214Z,99.99
2018-05-01T07:10:58.191Z,99.99
2018-05-01T07:11:58.236Z,99.99
2018-05-01T07:12:58.275Z,99.99
2018-05-01T07:13:58.314Z,99.99
2018-05-01T07:14:58.460Z,99.99
2018-05-01T07:15:58.410Z,99.99
2018-05-01T07:16:58.464Z,99.99
2018-05-01T07:17:58.509Z,99.99
2018-05-01T07:18:58.558Z,99.99
2018-05-01T07:19:58.611Z,99.99
2018-05-01T07:20:58.740Z,99.99
2018-05-01T07:21:58.687Z,99.99
2018-05-01T07:22:58.725Z,99.99
2018-05-01T07:23:58.772Z,99.99
2018-05-01T07:24:58.829Z,99.99
2018-05-01T07:25:58.863Z,99.99
2018-05-01T07:26:58.926Z,99.99
2018-05-01T07:27:58.962Z,99.99
2018-05-01T07:28:59.001Z,99.99
2018-05-01T07:29:59.261Z,99.99
2018-05-01T07:30:59.213Z,99.99
2018-05-01T07:31:59.237Z,99.99
2018-05-01T07:32:59.198Z,99.99
2018-05-01T07:33:59.242Z,99.99
2018-05-01T07:34:59.283Z,99.99
2018-05-01T07:35:59.322Z,99.99
2018-05-01T07:36:59.377Z,99.99
2018-05-01T07:37:59.430Z,99.99
2018-05-01T07:38:59.470Z,99.99
2018-05-01T07:39:59.517Z,99.99
2018-05-01T07:40:59.562Z,99.99
2018-05-01T07:41:59.708Z,99.99
2018-05-01T07:43:59.683Z,99.99
2018-05-01T07:45:59.803Z,99.99
2018-05-01T07:46:59.921Z,99.99
2018-05-01T07:47:59.890Z,99.99
2018-05-01T07:48:59.916Z,99.99
2018-05-01T07:49:59.959Z,99.99
2018-05-01T07:51:00.025Z,99.99
2018-05-01T07:52:00.051Z,99.99
2018-05-01T07:53:00.195Z,99.99
2018-05-01T07:54:00.141Z,99.99
2018-05-01T07:55:00.209Z,99.99
2018-05-01T07:56:00.246Z,99.99
2018-05-01T07:57:00.300Z,99.99
2018-05-01T07:58:00.337Z,99.99
2018-05-01T07:59:00.477Z,99.99
2018-05-01T08:00:00.443Z,99.99
2018-05-01T08:01:00.461Z,99.99
2018-05-01T08:02:00.519Z,99.99
2018-05-01T08:03:00.574Z,99.99
2018-05-01T08:04:00.618Z,99.99
2018-05-01T08:05:00.750Z,99.99
2018-05-01T08:06:00.688Z,99.99
2018-05-01T08:07:00.830Z,99.99
2018-05-01T08:08:00.779Z,99.99
2018-05-01T08:09:00.823Z,99.99
2018-05-01T08:10:00.979Z,99.99
2018-05-01T08:11:00.943Z,99.99
2018-05-01T08:12:01.031Z,99.99
2018-05-01T08:13:01.005Z,99.99
2018-05-01T08:14:01.069Z,99.99
2018-05-01T08:15:01.105Z,99.99
2018-05-01T08:16:01.165Z,99.99
2018-05-01T08:17:01.190Z,99.99
2018-05-01T08:18:01.248Z,99.99
2018-05-01T08:19:01.293Z,99.99
2018-05-01T08:20:01.440Z,99.99
2018-05-01T08:21:01.486Z,99.99
2018-05-01T08:22:01.431Z,99.99
2018-05-01T08:23:01.463Z,99.99
2018-05-01T08:24:01.522Z,99.99
2018-05-01T08:25:01.568Z,99.99
2018-05-01T08:26:01.601Z,99.99
2018-05-01T08:27:01.666Z,99.99
2018-05-01T08:28:01.690Z,99.99
2018-05-01T08:29:01.734Z,99.99
2018-05-01T08:30:01.778Z,99.99
2018-05-01T08:31:01.925Z,99.99
2018-05-01T08:32:01.972Z,99.99
2018-05-01T08:33:01.934Z,99.99
2018-05-01T08:34:01.974Z,99.99
2018-05-01T08:35:02.029Z,99.99
2018-05-01T08:36:02.065Z,99.99
2018-05-01T08:37:02.117Z,99.99
2018-05-01T08:38:02.263Z,99.99
2018-05-01T08:39:02.194Z,99.99
2018-05-01T08:40:02.243Z,99.99
2018-05-01T08:41:02.291Z,99.99
2018-05-01T08:42:02.345Z,99.99
2018-05-01T08:43:02.488Z,99.99
2018-05-01T08:44:02.416Z,99.99
2018-05-01T08:45:02.488Z,99.99
2018-05-01T08:46:02.505Z,99.99
2018-05-01T08:47:02.550Z,99.99
2018-05-01T08:48:02.602Z,99.99
2018-05-01T08:49:02.756Z,99.99
2018-05-01T08:50:02.697Z,99.99
2018-05-01T08:51:02.732Z,99.99
2018-05-01T08:52:02.791Z,99.99
2018-05-01T08:53:02.823Z,99.99
2018-05-01T08:54:02.869Z,99.99
2018-05-01T08:55:03.021Z,99.99
2018-05-01T08:56:02.960Z,99.99
2018-05-01T08:57:03.016Z,99.99
2018-05-01T08:58:03.252Z,99.99
2018-05-01T08:59:03.108Z,99.99
2018-05-01T09:00:03.162Z,99.99
2018-05-01T09:01:03.197Z,99.99
2018-05-01T09:02:03.350Z,99.99
2018-05-01T09:03:03.289Z,99.99
2018-05-01T09:04:03.347Z,99.99
2018-05-01T09:05:03.380Z,99.99
2018-05-01T09:06:03.424Z,99.99
2018-05-01T09:08:03.614Z,99.99
2018-05-01T09:09:03.548Z,99.99
2018-05-01T09:10:03.610Z,99.99
2018-05-01T09:11:03.644Z,99.99
2018-05-01T09:12:03.691Z,99.99
2018-05-01T09:13:04.030Z,99.99
2018-05-01T09:14:03.772Z,99.99
2018-05-01T09:16:03.887Z,99.99
2018-05-01T09:17:03.969Z,99.99
2018-05-01T09:18:04.106Z,99.99
2018-05-01T09:19:03.999Z,99.99
2018-05-01T09:20:04.060Z,99.99
2018-05-01T09:21:04.293Z,99.99
2018-05-01T09:22:04.359Z,99.99
2018-05-01T09:23:04.483Z,99.99
2018-05-01T09:24:04.340Z,99.99
2018-05-01T09:25:04.480Z,99.99
2018-05-01T09:26:04.330Z,99.99
2018-05-01T09:27:04.382Z,99.99
2018-05-01T09:28:04.415Z,99.99
2018-05-01T09:29:04.474Z,99.99
2018-05-01T09:30:04.619Z,99.99
2018-05-01T09:31:04.562Z,99.99
2018-05-01T09:32:04.590Z,99.99
2018-05-01T09:33:04.648Z,99.99
2018-05-01T09:34:04.699Z,99.99
2018-05-01T09:37:04.839Z,99.99
2018-05-01T09:38:04.884Z,99.99
2018-05-01T09:39:04.926Z,99.99
2018-05-01T09:40:04.963Z,99.99
2018-05-01T09:41:05.109Z,99.99
2018-05-01T09:42:05.055Z,99.99
2018-05-01T09:43:05.309Z,99.99
2018-05-01T09:44:05.140Z,99.99
2018-05-01T09:45:05.185Z,99.99
2018-05-01T09:46:05.236Z,99.99
2018-05-01T09:47:05.290Z,99.99
2018-05-01T09:48:05.314Z,99.99
2018-05-01T09:49:05.358Z,99.99
2018-05-01T09:50:05.419Z,99.99
2018-05-01T09:51:05.552Z,99.99
2018-05-01T09:52:05.515Z,99.99
2018-05-01T09:53:05.555Z,99.99
2018-05-01T09:54:05.598Z,99.99
2018-05-01T09:55:05.654Z,99.99
2018-05-01T09:56:05.844Z,99.99
2018-05-01T09:57:05.735Z,99.99
2018-05-01T09:58:05.793Z,99.99
2018-05-01T09:59:05.815Z,99.99
2018-05-01T10:00:05.892Z,99.99
2018-05-01T10:01:05.926Z,99.99
2018-05-01T10:02:06.056Z,99.99
2018-05-01T10:03:06.011Z,99.99
2018-05-01T10:04:06.041Z,99.99
2018-05-01T10:05:06.109Z,99.99
2018-05-01T10:06:06.149Z,99.99
2018-05-01T10:07:06.194Z,99.99
2018-05-01T10:08:06.327Z,99.99
2018-05-01T10:09:06.291Z,99.99
2018-05-01T10:10:06.317Z,99.99
2018-05-01T10:11:06.370Z,99.99
2018-05-01T10:12:06.410Z,99.99
2018-05-01T10:13:06.476Z,99.99
2018-05-01T10:14:06.630Z,99.99
2018-05-01T10:15:06.570Z,99.99
2018-05-01T10:16:06.602Z,99.99
2018-05-01T10:17:06.845Z,99.99
2018-05-01T10:18:06.687Z,99.99
2018-05-01T10:19:06.753Z,99.99
2018-05-01T10:20:06.889Z,99.99
2018-05-01T10:21:06.826Z,99.99
2018-05-01T10:22:06.891Z,99.99
2018-05-01T10:23:06.947Z,99.99
2018-05-01T10:24:06.970Z,99.99
2018-05-01T10:25:07.126Z,99.99
2018-05-01T10:26:07.089Z,99.99
2018-05-01T10:27:07.116Z,99.99
2018-05-01T10:28:07.169Z,99.99
2018-05-01T10:29:07.210Z,99.99
2018-05-01T10:30:07.253Z,99.99
2018-05-01T10:31:07.301Z,99.99
2018-05-01T10:32:07.361Z,99.99
2018-05-01T10:33:07.395Z,99.99
2018-05-01T10:34:07.447Z,99.99
2018-05-01T10:35:07.594Z,99.99
2018-05-01T10:36:07.558Z,99.99
2018-05-01T10:37:07.607Z,99.99
2018-05-01T10:38:07.651Z,99.99
2018-05-01T10:39:07.706Z,99.99
2018-05-01T10:40:07.864Z,99.75
2018-05-01T10:41:07.802Z,99.99
2018-05-01T10:42:07.863Z,97.91
2018-05-01T10:43:07.897Z,97.23
2018-05-01T10:44:08.212Z,96.11
2018-05-01T10:45:08.008Z,96.11
2018-05-01T10:46:08.158Z,95.67
2018-05-01T10:47:08.110Z,95.09
2018-05-01T10:48:08.345Z,94.12
2018-05-01T10:49:08.216Z,93.98
2018-05-01T10:51:08.313Z,93.78
2018-05-01T10:52:08.462Z,93.29
2018-05-01T10:53:08.419Z,93.49
2018-05-01T10:54:08.467Z,92.76
2018-05-01T10:55:08.504Z,92.27
2018-05-01T10:56:08.559Z,91.88
2018-05-01T10:57:08.607Z,91.83
2018-05-01T10:58:08.758Z,91.54
2018-05-01T10:59:08.711Z,91.69
2018-05-01T11:00:08.762Z,92.03
2018-05-01T11:01:08.835Z,93.35
2018-05-01T11:02:09.070Z,94.46
2018-05-01T11:03:08.926Z,95.73
2018-05-01T11:04:09.091Z,96.16
2018-05-01T11:05:09.046Z,97.23
2018-05-01T11:06:09.290Z,97.47
2018-05-01T11:07:09.149Z,99.55
2018-05-01T11:08:09.187Z,99.99
2018-05-01T11:09:09.243Z,99.99
2018-05-01T11:10:09.390Z,99.99
2018-05-01T11:12:09.400Z,99.99
2018-05-01T11:13:09.437Z,99.99
2018-05-01T11:14:09.500Z,99.99
2018-05-01T11:15:09.536Z,99.99
2018-05-01T11:16:09.711Z,99.99
2018-05-01T11:17:09.650Z,99.99
2018-05-01T11:18:09.687Z,99.99
2018-05-01T11:19:09.761Z,99.99
2018-05-01T11:20:10.012Z,99.99
2018-05-01T11:21:10.041Z,99.99
2018-05-01T11:22:09.910Z,99.99
2018-05-01T11:23:09.958Z,99.99
2018-05-01T11:24:09.991Z,99.99
2018-05-01T11:25:10.261Z,99.99
2018-05-01T11:26:10.208Z,99.99
2018-05-01T11:27:10.262Z,99.99
2018-05-01T11:29:10.251Z,99.99
2018-05-01T11:30:10.361Z,99.99
2018-05-01T11:31:10.337Z,99.99
2018-05-01T11:32:10.507Z,99.99
2018-05-01T11:33:10.455Z,99.99
2018-05-01T11:35:10.550Z,99.99
2018-05-01T11:36:10.612Z,99.99
2018-05-01T11:37:10.635Z,99.99
2018-05-01T11:38:11.001Z,99.99
2018-05-01T11:39:10.746Z,99.99
2018-05-01T11:40:10.797Z,99.99
2018-05-01T11:41:10.845Z,99.99
2018-05-01T11:42:10.881Z,99.99
2018-05-01T11:43:10.945Z,99.99
2018-05-01T11:44:11.081Z,99.99
2018-05-01T11:45:11.239Z,99.99
2018-05-01T11:46:11.079Z,99.99
2018-05-01T11:47:11.142Z,99.99
2018-05-01T11:48:11.195Z,99.99
2018-05-01T11:49:11.243Z,99.99
2018-05-01T11:50:11.301Z,99.99
2018-05-01T11:51:11.345Z,99.99
2018-05-01T11:52:11.410Z,99.99
2018-05-01T11:53:11.457Z,99.99
2018-05-01T11:54:11.579Z,99.99
2018-05-01T11:55:11.533Z,99.99
2018-05-01T11:56:11.588Z,99.99
2018-05-01T11:57:11.651Z,99.99
2018-05-01T11:58:11.694Z,99.99
2018-05-01T11:59:11.832Z,99.99
2018-05-01T12:00:11.786Z,99.99
2018-05-01T12:01:11.832Z,99.99
2018-05-01T12:02:11.895Z,99.99
2018-05-01T12:03:11.931Z,99.99
2018-05-01T12:04:11.983Z,99.99
2018-05-01T12:05:12.032Z,99.99
2018-05-01T12:06:12.096Z,99.99
2018-05-01T12:07:12.139Z,99.99
2018-05-01T12:08:12.197Z,99.99
2018-05-01T12:09:12.342Z,99.99
2018-05-01T12:10:12.301Z,99.99
2018-05-01T12:11:12.332Z,99.99
2018-05-01T12:12:12.393Z,99.99
2018-05-01T12:13:12.454Z,99.99
2018-05-01T12:14:12.591Z,99.99
2018-05-01T12:15:12.548Z,99.99
2018-05-01T12:16:12.637Z,99.99
2018-05-01T12:17:12.648Z,99.99
2018-05-01T12:18:12.705Z,99.99
2018-05-01T12:19:12.737Z,98.88
2018-05-01T12:20:12.887Z,97.76
2018-05-01T12:21:12.839Z,96.40
2018-05-01T12:22:12.902Z,94.98
2018-05-01T12:23:12.961Z,94.06
2018-05-01T12:24:13.005Z,91.96
2018-05-01T12:25:13.144Z,90.59
2018-05-01T12:26:13.118Z,88.18
2018-05-01T12:27:13.149Z,86.09
2018-05-01T12:28:13.217Z,86.29
2018-05-01T12:30:13.310Z,85.74
2018-05-01T12:31:13.466Z,84.31
2018-05-01T12:32:13.426Z,82.65
2018-05-01T12:33:13.480Z,82.40
2018-05-01T12:34:13.542Z,82.24
2018-05-01T12:35:13.596Z,81.56
2018-05-01T12:36:13.652Z,81.64
2018-05-01T12:37:13.857Z,80.60
2018-05-01T12:38:13.775Z,80.17
2018-05-01T12:39:13.817Z,79.68
2018-05-01T12:40:13.874Z,79.80
2018-05-01T12:41:13.924Z,81.23
2018-05-01T12:42:13.981Z,81.92
2018-05-01T12:43:14.143Z,82.85
2018-05-01T12:44:14.101Z,82.85
2018-05-01T12:45:14.153Z,82.95
2018-05-01T12:46:14.202Z,83.73
2018-05-01T12:47:14.250Z,83.69
2018-05-01T12:48:14.385Z,84.33
2018-05-01T12:49:14.487Z,85.07
2018-05-01T12:50:14.619Z,85.91
2018-05-01T12:51:14.479Z,86.49
2018-05-01T12:52:14.539Z,87.33
2018-05-01T12:53:14.584Z,88.75
2018-05-01T12:54:14.654Z,89.33
2018-05-01T12:55:14.704Z,89.87
2018-05-01T12:56:14.750Z,89.58
2018-05-01T12:57:14.807Z,90.22
2018-05-01T12:58:14.874Z,90.99
2018-05-01T12:59:15.295Z,90.89
2018-05-01T13:00:15.069Z,90.89
2018-05-01T13:01:15.030Z,90.99
2018-05-01T13:02:15.092Z,90.84
2018-05-01T13:03:15.145Z,90.70
2018-05-01T13:04:15.397Z,92.31
2018-05-01T13:05:15.268Z,93.43
2018-05-01T13:06:15.307Z,94.36
2018-05-01T13:07:15.357Z,95.38
2018-05-01T13:08:15.403Z,96.45
2018-05-01T13:09:15.468Z,97.32
2018-05-01T13:10:15.624Z,97.71
2018-05-01T13:11:15.569Z,96.64
2018-05-01T13:12:15.637Z,96.69
2018-05-01T13:13:15.682Z,94.55
2018-05-01T13:14:15.736Z,92.74
2018-05-01T13:15:15.776Z,91.08
2018-05-01T13:16:15.859Z,89.17
2018-05-01T13:17:15.900Z,85.55
2018-05-01T13:18:15.950Z,83.97
2018-05-01T13:19:16.006Z,82.24
2018-05-01T13:20:16.160Z,80.96
2018-05-01T13:21:16.110Z,80.66
2018-05-01T13:22:16.165Z,79.08
2018-05-01T13:23:16.213Z,77.80
2018-05-01T13:24:16.283Z,76.59
2018-05-01T13:25:16.434Z,77.47
2018-05-01T13:27:16.490Z,78.19
2018-05-01T13:28:16.510Z,77.47
2018-05-01T13:29:16.554Z,78.55
2018-05-01T13:30:16.609Z,77.37
2018-05-01T13:31:16.777Z,78.06